createdAt,value
2019-06-20T00:00:25.813Z,68.00
2019-06-20T00:01:25.792Z,72.00
2019-06-20T00:02:26.036Z,72.00
2019-06-20T00:03:25.782Z,80.00
2019-06-20T00:04:25.758Z,80.00
2019-06-20T00:05:25.952Z,88.00
2019-06-20T00:06:25.747Z,92.00
2019-06-20T00:07:25.774Z,96.00
2019-06-20T00:08:26.159Z,100.00
2019-06-20T00:09:25.715Z,108.00
2019-06-20T00:10:25.704Z,112.00
2019-06-20T00:11:25.681Z,116.00
2019-06-20T00:12:25.885Z,120.00
2019-06-20T00:13:25.675Z,124.00
2019-06-20T00:14:25.650Z,132.00
2019-06-20T00:15:25.892Z,140.00
2019-06-20T00:16:25.643Z,148.00
2019-06-20T00:17:25.623Z,152.00
2019-06-20T00:18:25.607Z,160.00
2019-06-20T00:19:25.773Z,168.00
2019-06-20T00:20:25.588Z,180.00
2019-06-20T00:21:25.574Z,184.00
2019-06-20T00:22:33.564Z,192.00
2019-06-20T00:23:25.843Z,200.00
2019-06-20T00:24:25.558Z,216.00
2019-06-20T00:25:25.527Z,224.00
2019-06-20T00:26:25.916Z,232.00
2019-06-20T00:27:25.502Z,244.00
2019-06-20T00:28:25.491Z,252.00
2019-06-20T00:29:25.785Z,264.00
2019-06-20T00:30:25.493Z,276.00
2019-06-20T00:31:25.463Z,288.00
2019-06-20T00:32:25.762Z,300.00
2019-06-20T00:33:25.441Z,312.00
2019-06-20T00:34:25.441Z,328.00
2019-06-20T00:35:25.760Z,340.00
2019-06-20T00:36:25.427Z,356.00
2019-06-20T00:37:25.402Z,368.00
2019-06-20T00:38:25.757Z,384.00
2019-06-20T00:39:25.375Z,396.00
2019-06-20T00:40:25.372Z,408.00
2019-06-20T00:41:25.668Z,424.00
2019-06-20T00:42:25.352Z,444.00
2019-06-20T00:43:25.336Z,456.00
2019-06-20T00:44:25.605Z,472.00
2019-06-20T00:45:25.345Z,484.00
2019-06-20T00:46:25.300Z,504.00
2019-06-20T00:47:25.611Z,520.00
2019-06-20T00:48:25.269Z,536.00
2019-06-20T00:49:25.257Z,552.00
2019-06-20T00:50:25.592Z,572.00
2019-06-20T00:51:25.272Z,588.00
2019-06-20T00:52:25.224Z,604.00
2019-06-20T00:53:25.536Z,624.00
2019-06-20T00:54:32.691Z,644.00
2019-06-20T00:55:25.524Z,660.00
2019-06-20T00:56:25.443Z,680.00
2019-06-20T00:57:25.178Z,700.00
2019-06-20T00:58:25.212Z,724.00
2019-06-20T00:59:25.443Z,744.00
2019-06-20T01:00:25.145Z,768.00
2019-06-20T01:01:25.124Z,788.00
2019-06-20T01:02:25.474Z,816.00
2019-06-20T01:03:25.106Z,840.00
2019-06-20T01:04:25.102Z,860.00
2019-06-20T01:05:25.389Z,888.00
2019-06-20T01:06:25.088Z,912.00
2019-06-20T01:07:25.061Z,936.00
2019-06-20T01:08:25.362Z,960.00
2019-06-20T01:09:25.036Z,984.00
2019-06-20T01:10:25.061Z,1016.00
2019-06-20T01:11:25.403Z,1040.00
2019-06-20T01:12:25.010Z,1064.00
2019-06-20T01:13:33.427Z,1092.00
2019-06-20T01:14:26.336Z,1120.00
2019-06-20T01:15:24.972Z,1148.00
2019-06-20T01:16:24.966Z,1172.00
2019-06-20T01:17:25.334Z,1204.00
2019-06-20T01:18:24.943Z,1232.00
2019-06-20T01:19:24.922Z,1256.00
2019-06-20T01:20:25.220Z,1288.00
2019-06-20T01:21:24.915Z,1320.00
2019-06-20T01:22:24.897Z,1344.00
2019-06-20T01:23:25.212Z,1376.00
2019-06-20T01:24:24.875Z,1400.00
2019-06-20T01:25:24.858Z,1428.00
2019-06-20T01:26:32.336Z,1456.00
2019-06-20T01:27:25.158Z,1480.00
2019-06-20T01:28:24.837Z,1512.00
2019-06-20T01:29:24.881Z,1536.00
2019-06-20T01:30:24.806Z,1568.00
2019-06-20T01:31:24.800Z,1600.00
2019-06-20T01:32:25.115Z,1632.00
2019-06-20T01:33:24.773Z,1664.00
2019-06-20T01:34:24.770Z,1692.00
2019-06-20T01:35:25.083Z,1728.00
2019-06-20T01:36:24.780Z,1756.00
2019-06-20T01:37:24.735Z,1788.00
2019-06-20T01:38:25.001Z,1816.00
2019-06-20T01:39:24.710Z,1848.00
2019-06-20T01:40:24.701Z,1876.00
2019-06-20T01:41:25.029Z,1904.00
2019-06-20T01:42:24.682Z,1932.00
2019-06-20T01:43:24.657Z,1964.00
2019-06-20T01:44:24.964Z,1996.00
2019-06-20T01:45:24.648Z,2024.00
2019-06-20T01:46:24.623Z,2056.00
2019-06-20T01:47:24.985Z,2088.00
2019-06-20T01:48:24.608Z,2120.00
2019-06-20T01:49:24.592Z,2152.00
2019-06-20T01:50:24.871Z,2180.00
2019-06-20T01:51:24.570Z,2212.00
2019-06-20T01:52:24.569Z,2244.00
2019-06-20T01:53:24.894Z,2276.00
2019-06-20T01:54:24.538Z,2304.00
2019-06-20T01:55:24.560Z,2336.00
2019-06-20T01:56:24.846Z,2360.00
2019-06-20T01:57:24.508Z,2392.00
2019-06-20T01:58:32.453Z,2424.00
2019-06-20T01:59:24.802Z,2460.00
2019-06-20T02:00:24.474Z,2500.00
2019-06-20T02:01:24.461Z,2548.00
2019-06-20T02:02:24.455Z,2596.00
2019-06-20T02:03:24.441Z,2648.00
2019-06-20T02:04:24.768Z,2708.00
2019-06-20T02:05:24.424Z,2760.00
2019-06-20T02:06:24.446Z,2808.00
2019-06-20T02:07:27.994Z,2848.00
2019-06-20T02:08:24.385Z,2880.00
2019-06-20T02:09:24.375Z,2908.00
2019-06-20T02:10:24.704Z,2932.00
2019-06-20T02:11:24.350Z,2960.00
2019-06-20T02:12:24.344Z,2992.00
2019-06-20T02:13:24.617Z,3016.00
2019-06-20T02:14:24.335Z,3048.00
2019-06-20T02:15:24.313Z,3080.00
2019-06-20T02:16:24.291Z,3116.00
2019-06-20T02:17:24.633Z,3156.00
2019-06-20T02:18:24.274Z,3176.00
2019-06-20T02:19:24.264Z,3208.00
2019-06-20T02:20:24.646Z,3244.00
2019-06-20T02:21:24.237Z,3280.00
2019-06-20T02:22:24.235Z,3332.00
2019-06-20T02:23:24.530Z,3384.00
2019-06-20T02:24:24.434Z,3452.00
2019-06-20T02:25:24.209Z,3532.00
2019-06-20T02:26:24.497Z,3644.00
2019-06-20T02:27:24.168Z,3716.00
2019-06-20T02:28:24.159Z,3736.00
2019-06-20T02:29:24.487Z,3716.00
2019-06-20T02:31:34.246Z,3816.00
2019-06-20T02:32:34.191Z,3868.00
2019-06-20T02:33:33.894Z,4008.00
2019-06-20T02:34:34.163Z,4144.00
2019-06-20T02:35:33.867Z,4188.00
2019-06-20T02:36:33.859Z,4224.00
2019-06-20T02:37:34.133Z,4236.00
2019-06-20T02:38:33.830Z,4300.00
2019-06-20T02:39:33.822Z,4408.00
2019-06-20T02:40:34.152Z,4472.00
2019-06-20T02:41:33.837Z,4536.00
2019-06-20T02:42:34.103Z,4588.00
2019-06-20T02:43:34.143Z,4628.00
2019-06-20T02:44:33.763Z,4688.00
2019-06-20T02:45:33.760Z,4768.00
2019-06-20T02:46:34.057Z,4840.00
2019-06-20T02:47:33.764Z,4916.00
2019-06-20T02:48:33.721Z,4968.00
2019-06-20T02:49:33.840Z,4972.00
2019-06-20T02:50:33.692Z,5052.00
2019-06-20T02:51:33.686Z,5188.00
2019-06-20T02:52:34.006Z,5276.00
2019-06-20T02:53:33.678Z,5344.00
2019-06-20T02:54:33.648Z,5340.00
2019-06-20T02:55:33.909Z,5328.00
2019-06-20T02:56:33.627Z,5408.00
2019-06-20T02:57:33.616Z,5392.00
2019-06-20T02:58:33.964Z,5420.00
2019-06-20T02:59:33.593Z,5480.00
2019-06-20T03:00:33.580Z,5596.00
2019-06-20T03:01:33.904Z,5768.00
2019-06-20T03:03:44.184Z,5880.00
2019-06-20T03:04:45.725Z,5964.00
2019-06-20T03:05:43.813Z,6060.00
2019-06-20T03:06:43.845Z,6116.00
2019-06-20T03:07:44.108Z,6236.00
2019-06-20T03:08:43.788Z,6412.00
2019-06-20T03:09:43.787Z,6596.00
2019-06-20T03:10:44.043Z,6872.00
2019-06-20T03:11:43.749Z,7228.00
2019-06-20T03:12:43.736Z,7356.00
2019-06-20T03:13:44.028Z,7520.00
2019-06-20T03:14:45.669Z,7772.00
2019-06-20T03:15:43.729Z,8000.00
2019-06-20T03:16:44.027Z,8272.00
2019-06-20T03:17:43.680Z,8024.00
2019-06-20T03:18:43.710Z,7596.00
2019-06-20T03:19:43.901Z,7560.00
2019-06-20T03:20:43.680Z,7728.00
2019-06-20T03:21:43.626Z,7832.00
2019-06-20T03:22:43.847Z,8012.00
2019-06-20T03:23:43.611Z,8236.00
2019-06-20T03:24:43.597Z,8320.00
2019-06-20T03:25:43.881Z,8384.00
2019-06-20T03:26:43.584Z,8800.00
2019-06-20T03:27:43.610Z,9436.00
2019-06-20T03:28:43.767Z,10496.00
2019-06-20T03:29:43.541Z,11128.00
2019-06-20T03:30:43.537Z,10300.00
2019-06-20T03:31:43.944Z,9268.00
2019-06-20T03:32:43.511Z,9076.00
2019-06-20T03:33:43.512Z,9156.00
2019-06-20T03:34:51.032Z,9112.00
2019-06-20T03:35:43.710Z,8896.00
2019-06-20T03:36:43.476Z,8712.00
2019-06-20T03:37:43.460Z,8632.00
2019-06-20T03:38:43.723Z,8708.00
2019-06-20T03:39:43.766Z,8772.00
2019-06-20T03:40:43.538Z,8860.00
2019-06-20T03:41:43.415Z,9036.00
2019-06-20T03:42:43.732Z,9152.00
2019-06-20T03:43:43.394Z,9280.00
2019-06-20T03:44:43.386Z,9368.00
2019-06-20T03:45:43.685Z,9312.00
2019-06-20T03:46:43.357Z,9208.00
2019-06-20T03:47:43.382Z,7912.00
2019-06-20T03:48:43.668Z,8604.00
2019-06-20T03:49:43.595Z,9484.00
2019-06-20T03:50:43.312Z,8316.00
2019-06-20T03:51:43.558Z,8260.00
2019-06-20T03:52:43.287Z,9388.00
2019-06-20T03:53:43.279Z,9952.00
2019-06-20T03:54:43.501Z,10352.00
2019-06-20T03:55:43.258Z,10516.00
2019-06-20T03:56:43.245Z,10544.00
2019-06-20T03:57:43.539Z,10672.00
2019-06-20T03:58:43.255Z,10772.00
2019-06-20T03:59:43.205Z,11036.00
2019-06-20T04:00:43.523Z,11168.00
2019-06-20T04:01:43.191Z,11316.00
2019-06-20T04:02:43.173Z,11468.00
2019-06-20T04:03:43.514Z,11512.00
2019-06-20T04:04:43.156Z,11476.00
2019-06-20T04:05:43.135Z,11380.00
2019-06-20T04:06:50.635Z,11580.00
2019-06-20T04:07:43.479Z,11764.00
2019-06-20T04:08:43.470Z,11760.00
2019-06-20T04:09:43.131Z,11532.00
2019-06-20T04:10:43.081Z,11080.00
2019-06-20T04:11:43.354Z,11436.00
2019-06-20T04:12:43.065Z,11588.00
2019-06-20T04:13:43.163Z,11552.00
2019-06-20T04:14:43.320Z,11544.00
2019-06-20T04:15:43.074Z,11520.00
2019-06-20T04:16:43.022Z,11588.00
2019-06-20T04:17:43.337Z,11468.00
2019-06-20T04:18:42.999Z,11336.00
2019-06-20T04:19:42.992Z,11176.00
2019-06-20T04:20:43.355Z,10972.00
2019-06-20T04:21:43.000Z,10676.00
2019-06-20T04:22:42.956Z,10672.00
2019-06-20T04:23:43.203Z,10532.00
2019-06-20T04:24:42.936Z,10580.00
2019-06-20T04:25:42.915Z,10676.00
2019-06-20T04:26:43.223Z,10624.00
2019-06-20T04:27:42.909Z,10688.00
2019-06-20T04:28:42.883Z,10700.00
2019-06-20T04:29:43.125Z,10556.00
2019-06-20T04:30:42.869Z,10408.00
2019-06-20T04:31:42.860Z,10332.00
2019-06-20T04:32:43.166Z,10288.00
2019-06-20T04:33:42.842Z,10264.00
2019-06-20T04:34:42.825Z,10332.00
2019-06-20T04:35:43.171Z,10336.00
2019-06-20T04:36:42.837Z,10312.00
2019-06-20T04:37:42.800Z,10188.00
2019-06-20T04:38:50.142Z,9648.00
2019-06-20T04:39:43.133Z,9908.00
2019-06-20T04:40:42.756Z,10432.00
2019-06-20T04:41:42.743Z,10632.00
2019-06-20T04:42:43.048Z,10912.00
2019-06-20T04:43:42.722Z,11012.00
2019-06-20T04:44:42.713Z,11164.00
2019-06-20T04:45:43.018Z,11332.00
2019-06-20T04:46:42.701Z,11472.00
2019-06-20T04:47:42.725Z,11576.00
2019-06-20T04:48:42.927Z,11648.00
2019-06-20T04:49:42.656Z,11724.00
2019-06-20T04:50:42.645Z,11756.00
2019-06-20T04:51:42.637Z,12076.00
2019-06-20T04:52:42.933Z,12224.00
2019-06-20T04:53:42.624Z,12408.00
2019-06-20T04:54:42.604Z,12764.00
2019-06-20T04:55:42.946Z,12848.00
2019-06-20T04:56:42.592Z,12876.00
2019-06-20T04:57:42.571Z,13400.00
2019-06-20T04:58:42.921Z,13728.00
2019-06-20T04:59:42.560Z,14044.00
2019-06-20T05:00:42.539Z,14156.00
2019-06-20T05:01:42.544Z,14168.00
2019-06-20T05:02:42.517Z,13928.00
2019-06-20T05:03:42.799Z,13656.00
2019-06-20T05:04:42.509Z,13124.00
2019-06-20T05:05:42.479Z,12564.00
2019-06-20T05:06:42.768Z,11264.00
2019-06-20T05:07:42.465Z,11100.00
2019-06-20T05:08:42.445Z,10648.00
2019-06-20T05:09:42.753Z,10036.00
2019-06-20T05:10:50.444Z,12632.00
2019-06-20T05:11:42.740Z,12796.00
2019-06-20T05:12:42.413Z,12892.00
2019-06-20T05:13:42.483Z,12924.00
2019-06-20T05:14:42.424Z,13040.00
2019-06-20T05:15:52.126Z,13040.00
2019-06-20T05:16:42.710Z,13168.00
2019-06-20T05:17:42.354Z,13188.00
2019-06-20T05:18:42.350Z,13188.00
2019-06-20T05:19:42.676Z,13156.00
2019-06-20T05:20:42.378Z,13112.00
2019-06-20T05:21:42.317Z,13024.00
2019-06-20T05:22:42.620Z,13264.00
2019-06-20T05:23:42.292Z,13324.00
2019-06-20T05:24:42.279Z,13320.00
2019-06-20T05:25:42.556Z,13308.00
2019-06-20T05:26:42.283Z,13340.00
2019-06-20T05:27:42.242Z,13192.00
2019-06-20T05:28:42.526Z,13220.00
2019-06-20T05:29:42.266Z,13276.00
2019-06-20T05:30:42.210Z,13336.00
2019-06-20T05:31:42.492Z,13528.00
2019-06-20T05:32:42.186Z,13640.00
2019-06-20T05:33:42.172Z,13700.00
2019-06-20T05:34:42.451Z,13800.00
2019-06-20T05:35:42.159Z,13828.00
2019-06-20T05:36:42.156Z,13912.00
2019-06-20T05:37:42.413Z,13948.00
2019-06-20T05:38:42.127Z,14016.00
2019-06-20T05:39:42.113Z,14076.00
2019-06-20T05:40:42.406Z,14144.00
2019-06-20T05:41:42.459Z,14252.00
2019-06-20T05:42:49.490Z,14324.00
2019-06-20T05:43:42.394Z,14408.00
2019-06-20T05:44:42.055Z,14492.00
2019-06-20T05:45:46.164Z,14560.00
2019-06-20T05:46:42.045Z,14684.00
2019-06-20T05:47:42.028Z,14884.00
2019-06-20T05:48:43.218Z,15084.00
2019-06-20T05:49:42.001Z,15140.00
2019-06-20T05:50:41.992Z,15464.00
2019-06-20T05:51:41.982Z,15940.00
2019-06-20T05:52:41.975Z,16636.00
2019-06-20T05:53:42.280Z,17920.00
2019-06-20T05:54:41.945Z,18912.00
2019-06-20T05:55:41.935Z,19616.00
2019-06-20T05:56:42.150Z,19680.00
2019-06-20T05:57:41.918Z,19520.00
2019-06-20T05:58:41.916Z,20928.00
2019-06-20T05:59:42.183Z,23616.00
2019-06-20T06:00:41.893Z,26336.00
2019-06-20T06:01:41.878Z,31392.00
2019-06-20T06:02:41.865Z,43232.00
2019-06-20T06:03:41.850Z,44096.00
2019-06-20T06:04:42.944Z,33952.00
2019-06-20T06:05:41.827Z,31456.00
2019-06-20T06:06:41.817Z,29792.00
2019-06-20T06:07:42.059Z,27712.00
2019-06-20T06:08:41.793Z,26496.00
2019-06-20T06:09:41.819Z,24960.00
2019-06-20T06:10:42.073Z,23808.00
2019-06-20T06:11:41.811Z,24736.00
2019-06-20T06:12:41.755Z,23392.00
2019-06-20T06:13:41.965Z,20864.00
2019-06-20T06:14:49.519Z,21824.00
2019-06-20T06:15:42.457Z,22976.00
2019-06-20T06:16:44.117Z,22240.00
2019-06-20T06:17:42.113Z,21760.00
2019-06-20T06:18:41.716Z,21856.00
2019-06-20T06:19:41.691Z,22464.00
2019-06-20T06:20:44.815Z,22368.00
2019-06-20T06:21:41.722Z,21728.00
2019-06-20T06:22:44.620Z,21888.00
2019-06-20T06:23:41.957Z,21824.00
2019-06-20T06:24:41.625Z,22368.00
2019-06-20T06:25:41.629Z,22560.00
2019-06-20T06:26:41.945Z,21472.00
2019-06-20T06:27:41.638Z,21312.00
2019-06-20T06:28:41.575Z,21952.00
2019-06-20T06:29:41.901Z,22496.00
2019-06-20T06:30:41.559Z,22496.00
2019-06-20T06:31:41.563Z,22432.00
2019-06-20T06:32:41.836Z,23104.00
2019-06-20T06:33:41.529Z,22784.00
2019-06-20T06:34:41.509Z,22496.00
2019-06-20T06:35:41.854Z,23040.00
2019-06-20T06:36:41.531Z,23264.00
2019-06-20T06:37:41.475Z,23328.00
2019-06-20T06:38:41.799Z,23744.00
2019-06-20T06:39:43.513Z,24288.00
2019-06-20T06:40:41.444Z,24224.00
2019-06-20T06:41:41.755Z,23648.00
2019-06-20T06:42:41.440Z,23616.00
2019-06-20T06:43:42.205Z,23296.00
2019-06-20T06:44:41.671Z,24832.00
2019-06-20T06:45:41.396Z,27424.00
2019-06-20T06:46:55.443Z,26752.00
2019-06-20T06:47:41.704Z,25760.00
2019-06-20T06:48:41.687Z,26720.00
2019-06-20T06:49:41.353Z,28992.00
2019-06-20T06:50:41.401Z,30592.00
2019-06-20T06:51:41.666Z,31104.00
2019-06-20T06:52:41.337Z,32512.00
2019-06-20T06:53:41.317Z,35264.00
2019-06-20T06:54:41.593Z,34464.00
2019-06-20T06:55:41.296Z,29568.00
2019-06-20T06:56:41.276Z,25472.00
2019-06-20T06:57:41.535Z,24128.00
2019-06-20T06:58:41.295Z,23904.00
2019-06-20T06:59:41.256Z,23616.00
2019-06-20T07:00:41.547Z,25728.00
2019-06-20T07:01:41.230Z,31328.00
2019-06-20T07:02:41.223Z,33056.00
2019-06-20T07:03:41.211Z,32672.00
2019-06-20T07:04:41.207Z,34720.00
2019-06-20T07:05:42.002Z,36384.00
2019-06-20T07:06:41.180Z,36832.00
2019-06-20T07:07:41.169Z,37376.00
2019-06-20T07:08:41.148Z,36960.00
2019-06-20T07:09:41.256Z,36992.00
2019-06-20T07:10:41.131Z,38688.00
2019-06-20T07:11:41.430Z,39392.00
2019-06-20T07:12:41.112Z,39456.00
2019-06-20T07:13:41.096Z,39744.00
2019-06-20T07:14:42.841Z,40640.00
2019-06-20T07:15:41.100Z,41856.00
2019-06-20T07:16:41.068Z,42176.00
2019-06-20T07:17:41.398Z,42752.00
2019-06-20T07:18:48.962Z,43040.00
2019-06-20T07:19:41.332Z,42112.00
2019-06-20T07:20:41.027Z,41472.00
2019-06-20T07:21:41.036Z,41600.00
2019-06-20T07:22:41.284Z,42464.00
2019-06-20T07:23:40.989Z,42144.00
2019-06-20T07:24:40.983Z,42432.00
2019-06-20T07:25:41.253Z,43264.00
2019-06-20T07:26:40.961Z,43328.00
2019-06-20T07:27:40.985Z,42688.00
2019-06-20T07:28:41.230Z,42144.00
2019-06-20T07:29:40.926Z,43424.00
2019-06-20T07:30:41.288Z,44704.00
2019-06-20T07:31:40.909Z,45120.00
2019-06-20T07:32:40.894Z,44640.00
2019-06-20T07:33:41.257Z,45184.00
2019-06-20T07:34:40.877Z,46560.00
2019-06-20T07:35:41.980Z,46688.00
2019-06-20T07:36:41.216Z,47360.00
2019-06-20T07:37:40.838Z,47968.00
2019-06-20T07:38:40.831Z,48256.00
2019-06-20T07:39:41.142Z,46912.00
2019-06-20T07:40:40.809Z,46944.00
2019-06-20T07:41:40.794Z,48704.00
2019-06-20T07:42:41.083Z,49504.00
2019-06-20T07:43:40.780Z,50624.00
2019-06-20T07:44:40.760Z,50720.00
2019-06-20T07:45:41.090Z,49088.00
2019-06-20T07:46:40.771Z,49248.00
2019-06-20T07:47:40.739Z,50176.00
2019-06-20T07:48:41.070Z,50560.00
2019-06-20T07:49:40.709Z,53440.00
2019-06-20T07:50:48.141Z,55712.00
2019-06-20T07:51:41.050Z,54624.00
2019-06-20T07:52:40.688Z,53920.00
2019-06-20T07:53:40.682Z,54944.00
2019-06-20T07:54:40.970Z,55936.00
2019-06-20T07:55:40.641Z,55520.00
2019-06-20T07:56:40.637Z,54912.00
2019-06-20T07:57:40.941Z,55488.00
2019-06-20T07:58:40.618Z,55936.00
2019-06-20T07:59:40.646Z,56064.00
2019-06-20T08:00:40.873Z,56896.00
2019-06-20T08:01:40.632Z,57728.00
2019-06-20T08:02:40.566Z,57120.00
2019-06-20T08:03:44.438Z,55776.00
2019-06-20T08:04:40.545Z,56352.00
2019-06-20T08:05:40.547Z,56832.00
2019-06-20T08:06:40.828Z,56064.00
2019-06-20T08:07:40.521Z,55648.00
2019-06-20T08:08:40.540Z,55360.00
2019-06-20T08:09:44.691Z,55712.00
2019-06-20T08:10:40.497Z,56960.00
2019-06-20T08:11:40.754Z,57888.00
2019-06-20T08:12:40.469Z,58528.00
2019-06-20T08:13:40.454Z,58304.00
2019-06-20T08:15:40.425Z,56352.00
2019-06-20T08:16:40.424Z,52384.00
2019-06-20T08:17:40.701Z,58688.00
2019-06-20T08:18:40.403Z,59264.00
2019-06-20T08:19:40.395Z,60192.00
2019-06-20T08:20:40.751Z,59808.00
2019-06-20T08:21:40.394Z,60768.00
2019-06-20T08:22:47.865Z,61664.00
2019-06-20T08:23:40.624Z,61344.00
2019-06-20T08:24:40.661Z,61600.00
2019-06-20T08:25:40.365Z,61728.00
2019-06-20T08:26:40.323Z,62048.00
2019-06-20T08:27:40.608Z,62496.00
2019-06-20T08:28:40.298Z,63296.00
2019-06-20T08:29:40.290Z,62976.00
2019-06-20T08:30:40.552Z,62944.00
2019-06-20T08:31:40.285Z,62368.00
2019-06-20T08:32:40.253Z,62144.00
2019-06-20T08:33:40.619Z,64096.00
2019-06-20T08:34:40.235Z,65056.00
2019-06-20T08:35:40.221Z,63392.00
2019-06-20T08:36:40.559Z,62560.00
2019-06-20T08:37:40.200Z,64768.00
2019-06-20T08:38:40.227Z,64800.00
2019-06-20T08:39:40.506Z,65280.00
2019-06-20T08:40:40.174Z,65600.00
2019-06-20T08:41:40.157Z,65728.00
2019-06-20T08:42:40.469Z,65248.00
2019-06-20T08:43:40.145Z,22080.00
2019-06-20T08:44:40.137Z,66336.00
2019-06-20T08:45:40.465Z,66368.00
2019-06-20T08:46:40.132Z,65952.00
2019-06-20T08:47:40.120Z,66304.00
2019-06-20T08:48:40.390Z,28672.00
2019-06-20T08:49:40.110Z,65632.00
2019-06-20T08:50:40.075Z,66432.00
2019-06-20T08:51:40.339Z,69024.00
2019-06-20T08:52:40.042Z,68800.00
2019-06-20T08:53:40.034Z,70304.00
2019-06-20T08:54:47.633Z,69792.00
2019-06-20T08:55:40.278Z,22912.00
2019-06-20T08:56:40.313Z,27808.00
2019-06-20T08:57:39.994Z,71840.00
2019-06-20T08:58:39.983Z,72544.00
2019-06-20T08:59:40.309Z,70848.00
2019-06-20T09:00:39.979Z,68928.00
2019-06-20T09:01:39.952Z,68672.00
2019-06-20T09:02:40.194Z,26976.00
2019-06-20T09:03:39.929Z,51840.00
2019-06-20T09:04:39.923Z,26240.00
2019-06-20T09:05:40.240Z,70016.00
2019-06-20T09:06:39.898Z,65952.00
2019-06-20T09:07:41.777Z,63904.00
2019-06-20T09:08:40.255Z,65952.00
2019-06-20T09:09:40.834Z,70912.00
2019-06-20T09:10:39.865Z,55072.00
2019-06-20T09:11:40.121Z,39712.00
2019-06-20T09:12:39.840Z,77440.00
2019-06-20T09:13:40.676Z,49088.00
2019-06-20T09:14:40.121Z,62112.00
2019-06-20T09:15:39.842Z,73088.00
2019-06-20T09:16:39.791Z,73728.00
2019-06-20T09:17:40.110Z,74912.00
2019-06-20T09:18:39.772Z,74176.00
2019-06-20T09:19:39.762Z,74752.00
2019-06-20T09:20:40.029Z,74656.00
2019-06-20T09:21:39.796Z,74112.00
2019-06-20T09:22:39.724Z,76128.00
2019-06-20T09:23:40.081Z,72288.00
2019-06-20T09:24:39.712Z,76096.00
2019-06-20T09:25:39.705Z,76192.00
2019-06-20T09:26:47.683Z,76256.00
2019-06-20T09:27:40.028Z,76416.00
2019-06-20T09:28:39.664Z,71936.00
2019-06-20T09:29:42.049Z,76928.00
2019-06-20T09:30:39.862Z,79168.00
2019-06-20T09:31:39.646Z,77952.00
2019-06-20T09:32:39.633Z,78592.00
2019-06-20T09:33:40.007Z,75776.00
2019-06-20T09:34:39.601Z,22048.00
2019-06-20T09:35:39.589Z,23744.00
2019-06-20T09:36:39.918Z,80480.00
2019-06-20T09:37:39.580Z,80704.00
2019-06-20T09:38:39.572Z,78912.00
2019-06-20T09:39:39.858Z,73856.00
2019-06-20T09:40:39.539Z,79200.00
2019-06-20T09:41:39.531Z,78176.00
2019-06-20T09:42:39.844Z,23712.00
2019-06-20T09:43:39.519Z,80800.00
2019-06-20T09:44:39.502Z,22688.00
2019-06-20T09:45:39.485Z,23104.00
2019-06-20T09:46:39.478Z,23392.00
2019-06-20T09:47:39.859Z,46656.00
2019-06-20T09:48:39.460Z,80288.00
2019-06-20T09:49:39.458Z,80928.00
2019-06-20T09:50:39.778Z,80256.00
2019-06-20T09:51:39.432Z,79392.00
2019-06-20T09:52:39.414Z,78432.00
2019-06-20T09:53:39.760Z,80928.00
2019-06-20T09:54:39.396Z,78528.00
2019-06-20T09:55:39.383Z,79584.00
2019-06-20T09:56:39.682Z,34400.00
2019-06-20T09:57:39.368Z,68896.00
2019-06-20T09:58:47.906Z,85152.00
2019-06-20T09:59:39.640Z,83040.00
2019-06-20T10:00:39.329Z,85248.00
2019-06-20T10:01:39.444Z,82752.00
2019-06-20T10:02:39.310Z,28224.00
2019-06-20T10:03:39.331Z,82688.00
2019-06-20T10:04:39.632Z,83008.00
2019-06-20T10:05:39.282Z,22688.00
2019-06-20T10:06:39.273Z,23392.00
2019-06-20T10:07:39.584Z,26304.00
2019-06-20T10:08:39.249Z,84864.00
2019-06-20T10:09:39.412Z,71872.00
2019-06-20T10:10:39.640Z,78112.00
2019-06-20T10:11:39.220Z,80544.00
2019-06-20T10:12:39.205Z,23008.00
2019-06-20T10:13:39.489Z,22624.00
2019-06-20T10:14:39.197Z,25088.00
2019-06-20T10:15:39.172Z,61280.00
2019-06-20T10:16:45.852Z,76256.00
2019-06-20T10:17:39.148Z,77248.00
2019-06-20T10:18:39.139Z,77696.00
2019-06-20T10:19:39.129Z,79424.00
2019-06-20T10:20:39.396Z,80544.00
2019-06-20T10:21:39.441Z,80160.00
2019-06-20T10:22:39.099Z,78272.00
2019-06-20T10:23:39.111Z,77824.00
2019-06-20T10:24:39.412Z,78880.00
2019-06-20T10:25:39.073Z,78080.00
2019-06-20T10:26:39.068Z,74304.00
2019-06-20T10:27:39.389Z,73056.00
2019-06-20T10:28:39.035Z,38624.00
2019-06-20T10:29:39.024Z,69760.00
2019-06-20T10:30:46.524Z,68320.00
2019-06-20T10:31:39.321Z,42880.00
2019-06-20T10:32:38.993Z,66624.00
2019-06-20T10:33:38.989Z,71392.00
2019-06-20T10:34:39.283Z,76736.00
2019-06-20T10:35:38.966Z,78336.00
2019-06-20T10:36:38.967Z,78720.00
2019-06-20T10:37:39.225Z,79936.00
2019-06-20T10:38:38.938Z,78944.00
2019-06-20T10:39:38.928Z,81312.00
2019-06-20T10:40:39.231Z,80832.00
2019-06-20T10:41:38.909Z,81088.00
2019-06-20T10:42:38.909Z,79744.00
2019-06-20T10:43:39.225Z,79616.00
2019-06-20T10:44:38.874Z,80544.00
2019-06-20T10:45:38.856Z,80640.00
2019-06-20T10:46:39.173Z,79680.00
2019-06-20T10:47:38.855Z,78112.00
2019-06-20T10:48:38.833Z,78304.00
2019-06-20T10:49:39.152Z,78016.00
2019-06-20T10:50:38.817Z,77280.00
2019-06-20T10:51:38.796Z,77600.00
2019-06-20T10:52:39.099Z,77984.00
2019-06-20T10:53:38.784Z,79136.00
2019-06-20T10:54:38.780Z,77728.00
2019-06-20T10:55:40.596Z,78048.00
2019-06-20T10:56:38.744Z,79328.00
2019-06-20T10:57:41.326Z,81024.00
2019-06-20T10:58:41.464Z,81536.00
2019-06-20T10:59:39.893Z,80544.00
2019-06-20T11:00:40.038Z,80224.00
2019-06-20T11:01:39.868Z,79232.00
2019-06-20T11:02:47.055Z,78560.00
2019-06-20T11:03:39.285Z,77056.00
2019-06-20T11:04:40.494Z,77696.00
2019-06-20T11:05:39.301Z,80000.00
2019-06-20T11:06:39.879Z,80352.00
2019-06-20T11:07:40.343Z,79904.00
2019-06-20T11:08:39.139Z,78592.00
2019-06-20T11:09:40.170Z,78048.00
2019-06-20T11:10:40.349Z,78880.00
2019-06-20T11:11:39.862Z,78080.00
2019-06-20T11:12:45.613Z,79296.00
2019-06-20T11:13:39.519Z,39520.00
2019-06-20T11:14:39.129Z,23936.00
2019-06-20T11:15:39.253Z,22912.00
2019-06-20T11:16:40.108Z,24832.00
2019-06-20T11:17:39.176Z,79904.00
2019-06-20T11:18:39.966Z,61184.00
2019-06-20T11:19:39.730Z,36160.00
2019-06-20T11:20:39.497Z,77536.00
2019-06-20T11:21:39.759Z,78496.00
2019-06-20T11:22:39.877Z,79104.00
2019-06-20T11:23:39.413Z,30624.00
2019-06-20T11:24:39.214Z,20608.00
2019-06-20T11:25:40.170Z,20736.00
2019-06-20T11:26:39.385Z,22400.00
2019-06-20T11:27:38.753Z,75168.00
2019-06-20T11:28:39.293Z,72064.00
2019-06-20T11:29:38.408Z,70880.00
2019-06-20T11:30:53.491Z,75328.00
2019-06-20T11:31:43.416Z,76512.00
2019-06-20T11:32:39.418Z,76480.00
2019-06-20T11:33:39.033Z,76544.00
2019-06-20T11:34:47.553Z,75808.00
2019-06-20T11:35:39.288Z,74016.00
2019-06-20T11:36:38.735Z,72096.00
2019-06-20T11:37:39.633Z,72608.00
2019-06-20T11:38:39.613Z,73632.00
2019-06-20T11:39:38.904Z,36768.00
2019-06-20T11:40:39.661Z,71200.00
2019-06-20T11:41:39.578Z,70528.00
2019-06-20T11:42:38.268Z,70400.00
2019-06-20T11:43:38.449Z,69536.00
2019-06-20T11:44:38.923Z,68192.00
2019-06-20T11:45:38.927Z,69536.00
2019-06-20T11:46:38.576Z,17480.00
2019-06-20T11:47:38.480Z,17204.00
2019-06-20T11:48:38.490Z,18080.00
2019-06-20T11:49:38.237Z,19360.00
2019-06-20T11:50:39.924Z,21824.00
2019-06-20T11:51:38.174Z,62688.00
2019-06-20T11:52:41.045Z,48512.00
2019-06-20T11:53:38.583Z,21248.00
2019-06-20T11:54:38.288Z,45280.00
2019-06-20T11:55:38.132Z,68512.00
2019-06-20T11:56:38.428Z,24192.00